sensor_id;sensor_type;location;lat;lon;timestamp;pressure;altitude;pressure_sealevel;temperature;humidity
61554;BME280;47425;51.976;5.326;2024-01-27T00:00:07;103297.56;;;15.10;48.90
61554;BME280;47425;51.976;5.326;2024-01-27T00:02:37;103308.97;;;15.10;49.08
61554;BME280;47425;51.976;5.326;2024-01-27T00:05:04;103297.53;;;15.15;48.71
61554;BME280;47425;51.976;5.326;2024-01-27T00:07:32;103309.88;;;15.23;48.59
61554;BME280;47425;51.976;5.326;2024-01-27T00:09:59;103299.28;;;15.28;48.27
61554;BME280;47425;51.976;5.326;2024-01-27T00:12:26;103312.50;;;15.25;48.84
61554;BME280;47425;51.976;5.326;2024-01-27T00:14:52;103308.09;;;15.22;48.55
61554;BME280;47425;51.976;5.326;2024-01-27T00:17:19;103303.72;;;15.20;48.17
61554;BME280;47425;51.976;5.326;2024-01-27T00:19:50;103317.78;;;15.17;48.75
61554;BME280;47425;51.976;5.326;2024-01-27T00:22:17;103317.78;;;15.23;48.68
61554;BME280;47425;51.976;5.326;2024-01-27T00:24:45;103313.41;;;15.25;48.38
61554;BME280;47425;51.976;5.326;2024-01-27T00:27:11;103308.97;;;15.29;48.53
61554;BME280;47425;51.976;5.326;2024-01-27T00:29:38;103309.00;;;15.17;48.51
61554;BME280;47425;51.976;5.326;2024-01-27T00:32:05;103308.13;;;15.18;48.47
61554;BME280;47425;51.976;5.326;2024-01-27T00:34:33;103308.97;;;15.20;47.94
61554;BME280;47425;51.976;5.326;2024-01-27T00:36:59;103321.31;;;15.19;48.21
61554;BME280;47425;51.976;5.326;2024-01-27T00:39:26;103319.56;;;15.14;48.70
61554;BME280;47425;51.976;5.326;2024-01-27T00:41:54;103316.03;;;15.05;48.16
61554;BME280;47425;51.976;5.326;2024-01-27T00:44:23;103311.63;;;14.97;49.06
61554;BME280;47425;51.976;5.326;2024-01-27T00:46:50;103309.00;;;15.04;48.80
61554;BME280;47425;51.976;5.326;2024-01-27T00:49:16;103307.25;;;15.13;48.83
61554;BME280;47425;51.976;5.326;2024-01-27T00:51:43;103308.13;;;15.10;48.69
61554;BME280;47425;51.976;5.326;2024-01-27T00:54:10;103306.34;;;15.10;49.25
61554;BME280;47425;51.976;5.326;2024-01-27T00:56:36;103312.50;;;15.14;49.03
61554;BME280;47425;51.976;5.326;2024-01-27T00:59:04;103309.00;;;15.09;48.78
61554;BME280;47425;51.976;5.326;2024-01-27T01:01:32;103310.75;;;15.12;48.54
61554;BME280;47425;51.976;5.326;2024-01-27T01:03:59;103314.28;;;15.12;48.73
61554;BME280;47425;51.976;5.326;2024-01-27T01:06:25;103312.50;;;15.16;49.01
61554;BME280;47425;51.976;5.326;2024-01-27T01:08:52;103307.22;;;15.17;48.35
61554;BME280;47425;51.976;5.326;2024-01-27T01:11:18;103303.72;;;15.06;48.19
61554;BME280;47425;51.976;5.326;2024-01-27T01:13:46;103294.91;;;14.98;48.61
61554;BME280;47425;51.976;5.326;2024-01-27T01:16:14;103299.31;;;14.83;48.54
61554;BME280;47425;51.976;5.326;2024-01-27T01:18:41;103309.88;;;14.89;49.63
61554;BME280;47425;51.976;5.326;2024-01-27T01:21:08;103309.88;;;15.00;49.02
61554;BME280;47425;51.976;5.326;2024-01-27T01:23:34;103308.97;;;15.01;48.06
61554;BME280;47425;51.976;5.326;2024-01-27T01:26:02;103308.97;;;14.86;48.34
61554;BME280;47425;51.976;5.326;2024-01-27T01:28:29;103325.69;;;14.85;49.15
61554;BME280;47425;51.976;5.326;2024-01-27T01:30:57;103327.47;;;14.93;49.62
61554;BME280;47425;51.976;5.326;2024-01-27T01:33:25;103323.97;;;15.05;48.75
61554;BME280;47425;51.976;5.326;2024-01-27T01:35:52;103320.41;;;15.08;48.97
61554;BME280;47425;51.976;5.326;2024-01-27T01:38:20;103320.41;;;15.05;49.14
61554;BME280;47425;51.976;5.326;2024-01-27T01:40:46;103312.50;;;15.06;48.96
61554;BME280;47425;51.976;5.326;2024-01-27T01:43:13;103308.97;;;15.01;48.88
61554;BME280;47425;51.976;5.326;2024-01-27T01:45:40;103309.88;;;15.00;49.06
61554;BME280;47425;51.976;5.326;2024-01-27T01:48:07;103307.22;;;15.08;49.04
61554;BME280;47425;51.976;5.326;2024-01-27T01:50:36;103312.50;;;15.13;49.25
61554;BME280;47425;51.976;5.326;2024-01-27T01:53:04;103319.56;;;15.17;48.91
61554;BME280;47425;51.976;5.326;2024-01-27T01:55:31;103331.84;;;15.24;48.86
61554;BME280;47425;51.976;5.326;2024-01-27T01:57:57;103336.25;;;15.28;47.83
61554;BME280;47425;51.976;5.326;2024-01-27T02:00:24;103320.44;;;15.19;47.73
61554;BME280;47425;51.976;5.326;2024-01-27T02:02:52;103318.69;;;15.05;48.66
61554;BME280;47425;51.976;5.326;2024-01-27T02:05:19;103329.22;;;15.10;48.69
61554;BME280;47425;51.976;5.326;2024-01-27T02:07:46;103329.22;;;15.15;49.20
61554;BME280;47425;51.976;5.326;2024-01-27T02:10:17;103309.88;;;15.09;48.80
61554;BME280;47425;51.976;5.326;2024-01-27T02:12:44;103323.06;;;15.13;49.00
61554;BME280;47425;51.976;5.326;2024-01-27T02:15:13;103323.97;;;15.18;48.99
61554;BME280;47425;51.976;5.326;2024-01-27T02:17:40;103320.41;;;15.17;48.28
61554;BME280;47425;51.976;5.326;2024-01-27T02:20:07;103320.41;;;14.97;48.35
61554;BME280;47425;51.976;5.326;2024-01-27T02:22:34;103319.53;;;14.81;49.05
61554;BME280;47425;51.976;5.326;2024-01-27T02:25:03;103322.13;;;14.67;45.48
61554;BME280;47425;51.976;5.326;2024-01-27T02:27:31;103325.53;;;14.46;49.59
61554;BME280;47425;51.976;5.326;2024-01-27T02:29:58;103326.47;;;14.57;49.75
61554;BME280;47425;51.976;5.326;2024-01-27T02:32:24;103315.97;;;14.70;49.16
61554;BME280;47425;51.976;5.326;2024-01-27T02:34:51;103322.16;;;14.78;49.27
61554;BME280;47425;51.976;5.326;2024-01-27T02:37:18;103320.38;;;14.75;49.68
61554;BME280;47425;51.976;5.326;2024-01-27T02:39:46;103328.31;;;14.83;49.77
61554;BME280;47425;51.976;5.326;2024-01-27T02:42:14;103329.22;;;14.90;48.44
61554;BME280;47425;51.976;5.326;2024-01-27T02:44:41;103326.59;;;14.96;49.06
61554;BME280;47425;51.976;5.326;2024-01-27T02:47:07;103331.84;;;15.02;49.09
61554;BME280;47425;51.976;5.326;2024-01-27T02:49:34;103334.50;;;15.07;49.25
61554;BME280;47425;51.976;5.326;2024-01-27T02:52:01;103339.78;;;15.12;48.98
61554;BME280;47425;51.976;5.326;2024-01-27T02:54:27;103333.63;;;15.16;48.93
61554;BME280;47425;51.976;5.326;2024-01-27T02:56:54;103342.44;;;15.19;48.38
61554;BME280;47425;51.976;5.326;2024-01-27T02:59:22;103338.03;;;15.23;48.66
61554;BME280;47425;51.976;5.326;2024-01-27T03:01:49;103333.63;;;15.22;48.34
61554;BME280;47425;51.976;5.326;2024-01-27T03:04:15;103340.66;;;15.17;48.78
61554;BME280;47425;51.976;5.326;2024-01-27T03:06:43;103349.47;;;15.19;49.03
61554;BME280;47425;51.976;5.326;2024-01-27T03:09:10;103348.59;;;15.24;48.67
61554;BME280;47425;51.976;5.326;2024-01-27T03:11:37;103337.16;;;15.25;48.62
61554;BME280;47425;51.976;5.326;2024-01-27T03:14:03;103344.19;;;15.28;48.55
61554;BME280;47425;51.976;5.326;2024-01-27T03:16:31;103340.69;;;15.32;48.61
61554;BME280;47425;51.976;5.326;2024-01-27T03:18:59;103338.91;;;15.34;48.67
61554;BME280;47425;51.976;5.326;2024-01-27T03:21:26;103334.53;;;15.36;48.15
61554;BME280;47425;51.976;5.326;2024-01-27T03:23:53;103338.03;;;15.32;48.65
61554;BME280;47425;51.976;5.326;2024-01-27T03:26:20;103343.31;;;15.34;48.57
61554;BME280;47425;51.976;5.326;2024-01-27T03:28:46;103335.38;;;15.35;48.54
61554;BME280;47425;51.976;5.326;2024-01-27T03:31:14;103335.41;;;15.34;48.36
61554;BME280;47425;51.976;5.326;2024-01-27T03:33:42;103333.63;;;15.33;48.74
61554;BME280;47425;51.976;5.326;2024-01-27T03:36:09;103325.72;;;15.33;48.31
61554;BME280;47425;51.976;5.326;2024-01-27T03:38:36;103340.66;;;15.37;48.13
61554;BME280;47425;51.976;5.326;2024-01-27T03:41:03;103328.34;;;15.34;48.10
61554;BME280;47425;51.976;5.326;2024-01-27T03:43:31;103337.16;;;15.39;48.14
61554;BME280;47425;51.976;5.326;2024-01-27T03:45:58;103334.50;;;15.38;48.14
61554;BME280;47425;51.976;5.326;2024-01-27T03:48:25;103337.16;;;15.36;48.29
61554;BME280;47425;51.976;5.326;2024-01-27T03:50:53;103337.16;;;15.30;48.54
61554;BME280;47425;51.976;5.326;2024-01-27T03:53:19;103345.06;;;15.33;48.09
61554;BME280;47425;51.976;5.326;2024-01-27T03:55:47;103348.59;;;15.29;48.53
61554;BME280;47425;51.976;5.326;2024-01-27T03:58:14;103342.41;;;15.32;48.56
61554;BME280;47425;51.976;5.326;2024-01-27T04:00:40;103339.81;;;15.25;47.11
61554;BME280;47425;51.976;5.326;2024-01-27T04:03:07;103345.06;;;15.07;48.35
61554;BME280;47425;51.976;5.326;2024-01-27T04:05:35;103349.47;;;15.09;48.61
61554;BME280;47425;51.976;5.326;2024-01-27T04:08:05;103347.72;;;15.16;48.42
61554;BME280;47425;51.976;5.326;2024-01-27T04:10:31;103347.72;;;15.19;48.40
61554;BME280;47425;51.976;5.326;2024-01-27T04:12:58;103352.09;;;15.23;48.76
61554;BME280;47425;51.976;5.326;2024-01-27T04:15:25;103350.34;;;15.24;48.18
61554;BME280;47425;51.976;5.326;2024-01-27T04:17:52;103348.59;;;15.23;48.55
61554;BME280;47425;51.976;5.326;2024-01-27T04:20:20;103351.22;;;15.20;48.41
61554;BME280;47425;51.976;5.326;2024-01-27T04:22:46;103346.81;;;15.17;48.37
61554;BME280;47425;51.976;5.326;2024-01-27T04:25:14;103346.84;;;15.19;48.42
61554;BME280;47425;51.976;5.326;2024-01-27T04:27:41;103348.59;;;15.23;48.26
61554;BME280;47425;51.976;5.326;2024-01-27T04:30:10;103344.19;;;15.22;48.33
61554;BME280;47425;51.976;5.326;2024-01-27T04:32:36;103341.53;;;15.34;48.45
61554;BME280;47425;51.976;5.326;2024-01-27T04:35:08;103344.19;;;15.30;48.01
61554;BME280;47425;51.976;5.326;2024-01-27T04:37:36;103351.22;;;15.29;48.36
61554;BME280;47425;51.976;5.326;2024-01-27T04:40:04;103345.06;;;15.29;48.09
61554;BME280;47425;51.976;5.326;2024-01-27T04:42:33;103364.41;;;15.29;48.36
61554;BME280;47425;51.976;5.326;2024-01-27T04:44:59;103356.50;;;15.29;48.12
61554;BME280;47425;51.976;5.326;2024-01-27T04:47:27;103368.81;;;15.35;48.22
61554;BME280;47425;51.976;5.326;2024-01-27T04:49:54;103372.34;;;15.35;48.08
61554;BME280;47425;51.976;5.326;2024-01-27T04:52:20;103365.31;;;15.36;47.90
61554;BME280;47425;51.976;5.326;2024-01-27T04:54:47;103360.91;;;15.36;48.35
61554;BME280;47425;51.976;5.326;2024-01-27T04:57:14;103356.50;;;15.35;48.04
61554;BME280;47425;51.976;5.326;2024-01-27T04:59:43;103356.50;;;15.37;48.21
61554;BME280;47425;51.976;5.326;2024-01-27T05:02:10;103358.28;;;15.36;47.90
61554;BME280;47425;51.976;5.326;2024-01-27T05:04:37;103360.91;;;15.38;47.81
61554;BME280;47425;51.976;5.326;2024-01-27T05:07:03;103356.50;;;15.37;47.77
61554;BME280;47425;51.976;5.326;2024-01-27T05:09:30;103360.03;;;15.36;47.38
61554;BME280;47425;51.976;5.326;2024-01-27T05:11:59;103361.78;;;15.29;48.25
61554;BME280;47425;51.976;5.326;2024-01-27T05:14:26;103360.03;;;15.34;47.88
61554;BME280;47425;51.976;5.326;2024-01-27T05:16:54;103359.16;;;15.32;47.93
61554;BME280;47425;51.976;5.326;2024-01-27T05:19:21;103363.53;;;15.33;48.05
61554;BME280;47425;51.976;5.326;2024-01-27T05:21:47;103354.75;;;15.33;48.21
61554;BME280;47425;51.976;5.326;2024-01-27T05:24:15;103357.41;;;15.31;48.22
61554;BME280;47425;51.976;5.326;2024-01-27T05:26:42;103351.25;;;15.32;48.20
61554;BME280;47425;51.976;5.326;2024-01-27T05:29:09;103345.97;;;15.32;48.03
61554;BME280;47425;51.976;5.326;2024-01-27T05:31:35;103342.41;;;15.32;48.02
61554;BME280;47425;51.976;5.326;2024-01-27T05:34:17;103335.41;;;15.32;47.99
61554;BME280;47425;51.976;5.326;2024-01-27T05:36:44;103340.69;;;15.34;47.96
61554;BME280;47425;51.976;5.326;2024-01-27T05:39:12;103341.53;;;15.34;48.19
61554;BME280;47425;51.976;5.326;2024-01-27T05:41:38;103333.63;;;15.34;47.74
61554;BME280;47425;51.976;5.326;2024-01-27T05:44:05;103345.94;;;15.35;47.87
61554;BME280;47425;51.976;5.326;2024-01-27T05:46:31;103337.13;;;15.35;48.17
61554;BME280;47425;51.976;5.326;2024-01-27T05:48:58;103330.97;;;15.36;47.81
61554;BME280;47425;51.976;5.326;2024-01-27T05:51:30;103335.41;;;15.34;48.08
61554;BME280;47425;51.976;5.326;2024-01-27T05:53:57;103337.13;;;15.35;47.84
61554;BME280;47425;51.976;5.326;2024-01-27T05:56:24;103339.78;;;15.35;47.87
61554;BME280;47425;51.976;5.326;2024-01-27T05:58:50;103330.97;;;15.34;48.10
61554;BME280;47425;51.976;5.326;2024-01-27T06:01:17;103326.56;;;15.33;47.90
61554;BME280;47425;51.976;5.326;2024-01-27T06:03:45;103324.81;;;15.29;48.17
61554;BME280;47425;51.976;5.326;2024-01-27T06:06:12;103328.34;;;15.33;47.90
61554;BME280;47425;51.976;5.326;2024-01-27T06:08:40;103328.34;;;15.31;47.71
61554;BME280;47425;51.976;5.326;2024-01-27T06:11:07;103335.41;;;15.32;48.02
61554;BME280;47425;51.976;5.326;2024-01-27T06:13:35;103331.84;;;15.33;47.57
61554;BME280;47425;51.976;5.326;2024-01-27T06:16:06;103326.59;;;15.16;47.33
61554;BME280;47425;51.976;5.326;2024-01-27T06:18:34;103335.38;;;15.04;47.70
61554;BME280;47425;51.976;5.326;2024-01-27T06:21:00;103333.59;;;14.94;48.43
61554;BME280;47425;51.976;5.326;2024-01-27T06:23:27;103330.97;;;14.97;48.49
61554;BME280;47425;51.976;5.326;2024-01-27T06:25:55;103323.03;;;14.97;48.42
61554;BME280;47425;51.976;5.326;2024-01-27T06:28:23;103317.78;;;14.89;48.32
61554;BME280;47425;51.976;5.326;2024-01-27T06:30:49;103325.69;;;14.92;48.25
61554;BME280;47425;51.976;5.326;2024-01-27T06:33:16;103331.88;;;14.98;48.67
61554;BME280;47425;51.976;5.326;2024-01-27T06:35:43;103330.97;;;14.97;48.25
61554;BME280;47425;51.976;5.326;2024-01-27T06:38:09;103335.38;;;14.93;47.39
61554;BME280;47425;51.976;5.326;2024-01-27T06:40:37;103328.31;;;14.82;48.31
61554;BME280;47425;51.976;5.326;2024-01-27T06:43:05;103329.19;;;14.74;49.04
61554;BME280;47425;51.976;5.326;2024-01-27T06:45:32;103330.97;;;14.80;48.69
61554;BME280;47425;51.976;5.326;2024-01-27T06:47:58;103330.09;;;14.83;48.24
61554;BME280;47425;51.976;5.326;2024-01-27T06:50:25;103331.84;;;14.85;48.54
61554;BME280;47425;51.976;5.326;2024-01-27T06:52:53;103338.84;;;14.77;48.52
61554;BME280;47425;51.976;5.326;2024-01-27T06:55:19;103339.75;;;14.81;48.76
61554;BME280;47425;51.976;5.326;2024-01-27T06:57:46;103342.41;;;14.87;49.12
61554;BME280;47425;51.976;5.326;2024-01-27T07:00:15;103345.91;;;14.89;48.57
61554;BME280;47425;51.976;5.326;2024-01-27T07:02:41;103342.41;;;15.01;48.44
61554;BME280;47425;51.976;5.326;2024-01-27T07:05:10;103349.47;;;14.99;48.22
61554;BME280;47425;51.976;5.326;2024-01-27T07:07:37;103358.28;;;15.05;48.13
61554;BME280;47425;51.976;5.326;2024-01-27T07:10:05;103367.06;;;15.06;48.50
61554;BME280;47425;51.976;5.326;2024-01-27T07:12:33;103362.66;;;15.09;48.40
61554;BME280;47425;51.976;5.326;2024-01-27T07:14:59;103351.22;;;15.04;48.44
61554;BME280;47425;51.976;5.326;2024-01-27T07:17:29;103371.44;;;15.13;48.36
61554;BME280;47425;51.976;5.326;2024-01-27T07:19:55;103374.09;;;15.15;48.05
61554;BME280;47425;51.976;5.326;2024-01-27T07:22:22;103367.94;;;15.09;48.14
61554;BME280;47425;51.976;5.326;2024-01-27T07:24:49;103375.84;;;15.16;48.24
61554;BME280;47425;51.976;5.326;2024-01-27T07:27:17;103379.41;;;15.16;48.09
61554;BME280;47425;51.976;5.326;2024-01-27T07:29:45;103381.13;;;15.17;48.17
61554;BME280;47425;51.976;5.326;2024-01-27T07:32:11;103383.78;;;15.20;48.02
61554;BME280;47425;51.976;5.326;2024-01-27T07:34:43;103384.66;;;15.18;47.67
61554;BME280;47425;51.976;5.326;2024-01-27T07:37:09;103390.81;;;15.18;48.05
61554;BME280;47425;51.976;5.326;2024-01-27T07:39:36;103395.22;;;15.21;47.79
61554;BME280;47425;51.976;5.326;2024-01-27T07:42:04;103396.97;;;15.23;47.67
61554;BME280;47425;51.976;5.326;2024-01-27T07:44:31;103396.13;;;15.23;47.55
61554;BME280;47425;51.976;5.326;2024-01-27T07:46:59;103388.19;;;15.18;48.04
61554;BME280;47425;51.976;5.326;2024-01-27T07:49:26;103379.38;;;15.21;47.77
61554;BME280;47425;51.976;5.326;2024-01-27T07:51:54;103401.38;;;15.21;47.84
61554;BME280;47425;51.976;5.326;2024-01-27T07:54:22;103397.00;;;15.22;47.56
61554;BME280;47425;51.976;5.326;2024-01-27T07:59:30;103400.53;;;15.27;47.64
61554;BME280;47425;51.976;5.326;2024-01-27T08:01:58;103406.66;;;15.29;47.47
61554;BME280;47425;51.976;5.326;2024-01-27T08:04:25;103403.16;;;15.29;47.42
61554;BME280;47425;51.976;5.326;2024-01-27T08:06:54;103407.56;;;15.33;47.47
61554;BME280;47425;51.976;5.326;2024-01-27T08:09:21;103401.41;;;15.34;47.33
61554;BME280;47425;51.976;5.326;2024-01-27T08:11:48;103395.25;;;15.36;46.94
61554;BME280;47425;51.976;5.326;2024-01-27T08:14:17;103391.72;;;15.40;47.63
61554;BME280;47425;51.976;5.326;2024-01-27T08:16:45;103387.28;;;15.15;46.98
61554;BME280;47425;51.976;5.326;2024-01-27T08:19:12;103381.13;;;14.99;48.43
61554;BME280;47425;51.976;5.326;2024-01-27T08:21:39;103391.69;;;15.05;48.09
61554;BME280;47425;51.976;5.326;2024-01-27T08:24:07;103392.56;;;15.12;48.46
61554;BME280;47425;51.976;5.326;2024-01-27T08:26:33;103394.34;;;15.20;48.28
61554;BME280;47425;51.976;5.326;2024-01-27T08:29:00;103390.84;;;15.23;48.02
61554;BME280;47425;51.976;5.326;2024-01-27T08:31:26;103382.91;;;15.29;48.20
61554;BME280;47425;51.976;5.326;2024-01-27T08:33:53;103396.97;;;15.37;47.91
61554;BME280;47425;51.976;5.326;2024-01-27T08:36:20;103395.25;;;15.36;48.09
61554;BME280;47425;51.976;5.326;2024-01-27T08:38:46;103397.84;;;15.35;48.32
61554;BME280;47425;51.976;5.326;2024-01-27T08:41:14;103374.09;;;15.33;47.84
61554;BME280;47425;51.976;5.326;2024-01-27T08:43:41;103384.69;;;15.38;48.38
61554;BME280;47425;51.976;5.326;2024-01-27T08:46:07;103389.94;;;15.41;48.35
61554;BME280;47425;51.976;5.326;2024-01-27T08:48:36;103388.19;;;15.48;48.06
61554;BME280;47425;51.976;5.326;2024-01-27T08:51:03;103395.22;;;15.53;47.83
61554;BME280;47425;51.976;5.326;2024-01-27T08:53:29;103398.78;;;15.54;48.18
61554;BME280;47425;51.976;5.326;2024-01-27T08:55:56;103409.34;;;15.54;48.12
61554;BME280;47425;51.976;5.326;2024-01-27T08:58:25;103417.25;;;15.57;47.88
61554;BME280;47425;51.976;5.326;2024-01-27T09:00:52;103419.88;;;15.60;48.15
61554;BME280;47425;51.976;5.326;2024-01-27T09:03:19;103423.41;;;15.64;48.17
61554;BME280;47425;51.976;5.326;2024-01-27T09:05:46;103416.38;;;15.67;47.93
61554;BME280;47425;51.976;5.326;2024-01-27T09:08:13;103414.59;;;15.71;48.01
61554;BME280;47425;51.976;5.326;2024-01-27T09:10:41;103423.41;;;15.74;47.47
61554;BME280;47425;51.976;5.326;2024-01-27T09:13:07;103423.41;;;15.76;47.79
61554;BME280;47425;51.976;5.326;2024-01-27T09:15:35;103431.31;;;15.74;47.76
61554;BME280;47425;51.976;5.326;2024-01-27T09:18:03;103433.94;;;15.79;47.72
61554;BME280;47425;51.976;5.326;2024-01-27T09:20:30;103441.88;;;15.77;47.70
61554;BME280;47425;51.976;5.326;2024-01-27T09:22:59;103440.13;;;15.75;47.71
61554;BME280;47425;51.976;5.326;2024-01-27T09:25:25;103435.75;;;15.75;47.85
61554;BME280;47425;51.976;5.326;2024-01-27T09:27:53;103440.16;;;15.76;47.74
61554;BME280;47425;51.976;5.326;2024-01-27T09:30:20;103431.31;;;15.77;47.34
61554;BME280;47425;51.976;5.326;2024-01-27T09:32:48;103444.56;;;15.81;47.49
61554;BME280;47425;51.976;5.326;2024-01-27T09:35:16;103448.09;;;15.83;47.66
61554;BME280;47425;51.976;5.326;2024-01-27T09:37:42;103448.09;;;15.83;47.55
61554;BME280;47425;51.976;5.326;2024-01-27T09:40:11;103456.91;;;15.86;47.49
61554;BME280;47425;51.976;5.326;2024-01-27T09:42:38;103459.56;;;15.83;47.59
61554;BME280;47425;51.976;5.326;2024-01-27T09:45:06;103457.78;;;15.84;47.83
61554;BME280;47425;51.976;5.326;2024-01-27T09:47:34;103462.19;;;15.85;47.81
61554;BME280;47425;51.976;5.326;2024-01-27T09:50:03;103460.41;;;15.71;47.91
61554;BME280;47425;51.976;5.326;2024-01-27T09:52:30;103464.78;;;15.71;47.98
61554;BME280;47425;51.976;5.326;2024-01-27T09:54:56;103477.13;;;15.70;48.21
61554;BME280;47425;51.976;5.326;2024-01-27T09:57:23;103483.28;;;15.71;48.14
61554;BME280;47425;51.976;5.326;2024-01-27T09:59:51;103472.69;;;15.72;48.31
61554;BME280;47425;51.976;5.326;2024-01-27T10:02:18;103482.41;;;15.76;48.15
61554;BME280;47425;51.976;5.326;2024-01-27T10:04:48;103491.25;;;15.83;48.06
61554;BME280;47425;51.976;5.326;2024-01-27T10:07:16;103498.28;;;15.86;48.09
61554;BME280;47425;51.976;5.326;2024-01-27T10:09:43;103484.19;;;15.87;47.96
61554;BME280;47425;51.976;5.326;2024-01-27T10:12:10;103487.72;;;15.92;48.00
61554;BME280;47425;51.976;5.326;2024-01-27T10:14:40;103487.72;;;15.89;47.97
61554;BME280;47425;51.976;5.326;2024-01-27T10:17:10;103481.50;;;15.79;48.14
61554;BME280;47425;51.976;5.326;2024-01-27T10:19:37;103484.19;;;15.85;48.03
61554;BME280;47425;51.976;5.326;2024-01-27T10:22:03;103489.47;;;15.88;48.03
61554;BME280;47425;51.976;5.326;2024-01-27T10:24:33;103481.53;;;15.88;47.95
61554;BME280;47425;51.976;5.326;2024-01-27T10:27:01;103483.31;;;15.92;48.01
61554;BME280;47425;51.976;5.326;2024-01-27T10:29:27;103488.63;;;15.94;47.85
61554;BME280;47425;51.976;5.326;2024-01-27T10:31:54;103493.00;;;16.01;47.41
61554;BME280;47425;51.976;5.326;2024-01-27T10:34:21;103493.91;;;15.96;47.28
61554;BME280;47425;51.976;5.326;2024-01-27T10:36:48;103492.09;;;15.90;47.82
61554;BME280;47425;51.976;5.326;2024-01-27T10:39:21;103497.41;;;15.88;47.97
61554;BME280;47425;51.976;5.326;2024-01-27T10:41:50;103500.06;;;15.93;47.55
61554;BME280;47425;51.976;5.326;2024-01-27T10:44:18;103501.81;;;15.96;47.51
61554;BME280;47425;51.976;5.326;2024-01-27T10:46:46;103493.88;;;15.82;47.25
61554;BME280;47425;51.976;5.326;2024-01-27T10:49:15;103491.22;;;15.63;47.83
61554;BME280;47425;51.976;5.326;2024-01-27T10:51:43;103496.53;;;15.80;47.73
61554;BME280;47425;51.976;5.326;2024-01-27T10:54:17;103483.34;;;15.85;47.60
61554;BME280;47425;51.976;5.326;2024-01-27T10:56:45;103470.97;;;15.87;47.88
61554;BME280;47425;51.976;5.326;2024-01-27T10:59:13;103478.94;;;15.91;47.52
61554;BME280;47425;51.976;5.326;2024-01-27T11:01:41;103473.59;;;15.90;47.46
61554;BME280;47425;51.976;5.326;2024-01-27T11:04:11;103467.44;;;15.92;47.40
61554;BME280;47425;51.976;5.326;2024-01-27T11:06:40;103463.91;;;15.95;47.09
61554;BME280;47425;51.976;5.326;2024-01-27T11:09:08;103460.44;;;15.82;46.20
61554;BME280;47425;51.976;5.326;2024-01-27T11:11:37;103463.06;;;15.81;47.26
61554;BME280;47425;51.976;5.326;2024-01-27T11:14:06;103455.09;;;15.59;46.97
61554;BME280;47425;51.976;5.326;2024-01-27T11:16:35;103459.50;;;15.60;48.02
61554;BME280;47425;51.976;5.326;2024-01-27T11:19:05;103459.50;;;15.66;47.18
61554;BME280;47425;51.976;5.326;2024-01-27T11:21:32;103463.03;;;15.67;47.88
61554;BME280;47425;51.976;5.326;2024-01-27T11:23:58;103468.31;;;15.73;47.75
61554;BME280;47425;51.976;5.326;2024-01-27T11:26:25;103463.03;;;15.73;47.63
61554;BME280;47425;51.976;5.326;2024-01-27T11:28:53;103461.28;;;15.78;47.74
61554;BME280;47425;51.976;5.326;2024-01-27T11:31:20;103467.44;;;15.82;47.78
61554;BME280;47425;51.976;5.326;2024-01-27T11:33:50;103464.81;;;15.82;46.28
61554;BME280;47425;51.976;5.326;2024-01-27T11:36:19;103463.03;;;15.77;47.72
61554;BME280;47425;51.976;5.326;2024-01-27T11:38:47;103461.28;;;15.80;44.88
61554;BME280;47425;51.976;5.326;2024-01-27T11:41:25;103450.72;;;15.58;45.99
61554;BME280;47425;51.976;5.326;2024-01-27T11:43:54;103464.78;;;15.49;47.58
61554;BME280;47425;51.976;5.326;2024-01-27T11:46:21;103447.16;;;15.59;47.71
61554;BME280;47425;51.976;5.326;2024-01-27T11:48:49;103443.66;;;15.69;46.64
61554;BME280;47425;51.976;5.326;2024-01-27T11:51:17;103441.88;;;15.56;47.32
61554;BME280;47425;51.976;5.326;2024-01-27T11:53:45;103443.63;;;15.52;47.50
61554;BME280;47425;51.976;5.326;2024-01-27T11:56:13;103441.00;;;15.49;46.12
61554;BME280;47425;51.976;5.326;2024-01-27T11:58:46;103441.88;;;15.37;47.67
61554;BME280;47425;51.976;5.326;2024-01-27T12:01:12;103437.50;;;15.47;48.10
61554;BME280;47425;51.976;5.326;2024-01-27T12:03:40;103436.63;;;15.51;47.85
61554;BME280;47425;51.976;5.326;2024-01-27T12:06:09;103430.47;;;15.54;48.03
61554;BME280;47425;51.976;5.326;2024-01-27T12:08:36;103431.31;;;15.68;46.90
61554;BME280;47425;51.976;5.326;2024-01-27T12:11:02;103432.22;;;15.56;47.47
61554;BME280;47425;51.976;5.326;2024-01-27T12:13:29;103432.22;;;15.63;47.66
61554;BME280;47425;51.976;5.326;2024-01-27T12:15:57;103437.50;;;15.70;47.32
61554;BME280;47425;51.976;5.326;2024-01-27T12:18:25;103437.47;;;15.66;46.29
61554;BME280;47425;51.976;5.326;2024-01-27T12:20:55;103426.03;;;15.65;47.43
61554;BME280;47425;51.976;5.326;2024-01-27T12:23:23;103428.69;;;15.65;45.79
61554;BME280;47425;51.976;5.326;2024-01-27T12:25:52;103419.88;;;15.52;47.05
61554;BME280;47425;51.976;5.326;2024-01-27T12:28:19;103422.53;;;15.57;47.54
61554;BME280;47425;51.976;5.326;2024-01-27T12:30:47;103424.28;;;15.55;47.00
61554;BME280;47425;51.976;5.326;2024-01-27T12:33:14;103421.66;;;15.58;46.92
61554;BME280;47425;51.976;5.326;2024-01-27T12:35:42;103426.06;;;15.50;46.53
61554;BME280;47425;51.976;5.326;2024-01-27T12:38:09;103419.00;;;15.49;47.79
61554;BME280;47425;51.976;5.326;2024-01-27T12:40:38;103414.59;;;15.48;47.18
61554;BME280;47425;51.976;5.326;2024-01-27T12:43:05;103420.72;;;15.28;47.46
61554;BME280;47425;51.976;5.326;2024-01-27T12:45:35;103431.34;;;15.42;47.48
61554;BME280;47425;51.976;5.326;2024-01-27T12:48:03;103430.47;;;15.55;47.75
61554;BME280;47425;51.976;5.326;2024-01-27T12:50:31;103434.84;;;15.69;47.49
61554;BME280;47425;51.976;5.326;2024-01-27T12:52:58;103426.94;;;15.81;47.40